createdAt,value
2023-02-25T00:00:19.385Z,7.40
2023-02-25T00:03:19.805Z,7.43
2023-02-25T00:05:56.277Z,7.45
2023-02-25T00:08:33.442Z,7.45
2023-02-25T00:11:11.820Z,7.43
2023-02-25T00:13:50.523Z,7.40
2023-02-25T00:16:28.269Z,7.37
2023-02-25T00:19:05.073Z,7.35
2023-02-25T00:21:41.886Z,7.33
2023-02-25T00:24:18.992Z,7.29
2023-02-25T00:26:55.502Z,7.25
2023-02-25T00:29:32.185Z,7.22
2023-02-25T00:32:08.841Z,7.20
2023-02-25T00:34:46.639Z,7.18
2023-02-25T00:37:23.405Z,7.18
2023-02-25T00:39:59.609Z,7.17
2023-02-25T00:42:36.966Z,7.17
2023-02-25T00:45:18.071Z,7.17
2023-02-25T00:47:54.480Z,7.18
2023-02-25T00:50:31.086Z,7.19
2023-02-25T00:53:07.557Z,7.19
2023-02-25T00:55:44.613Z,7.17
2023-02-25T00:58:20.867Z,7.12
2023-02-25T01:00:57.668Z,7.06
2023-02-25T01:03:34.146Z,6.98
2023-02-25T01:06:12.624Z,6.90
2023-02-25T01:08:49.455Z,6.81
2023-02-25T01:11:31.129Z,6.73
2023-02-25T01:14:13.072Z,6.65
2023-02-25T01:16:52.149Z,6.57
2023-02-25T01:19:31.248Z,6.50
2023-02-25T01:22:07.934Z,6.43
2023-02-25T01:24:44.271Z,6.37
2023-02-25T01:27:20.776Z,6.32
2023-02-25T01:29:57.380Z,6.27
2023-02-25T01:32:33.953Z,6.23
2023-02-25T01:35:12.771Z,6.20
2023-02-25T01:37:50.129Z,6.16
2023-02-25T01:40:26.860Z,6.13
2023-02-25T01:43:03.160Z,6.10
2023-02-25T01:45:49.358Z,6.06
2023-02-25T01:48:32.548Z,6.03
2023-02-25T01:51:14.012Z,6.01
2023-02-25T01:53:51.901Z,5.98
2023-02-25T02:12:52.929Z,5.89
2023-02-25T02:15:33.389Z,5.88
2023-02-25T02:18:11.503Z,5.87
2023-02-25T02:21:10.169Z,5.87
2023-02-25T02:24:52.489Z,5.86
2023-02-25T02:27:40.306Z,5.83
2023-02-25T02:31:21.561Z,5.79
2023-02-25T02:34:25.790Z,5.73
2023-02-25T02:37:21.045Z,5.69
2023-02-25T02:40:17.584Z,5.66
2023-02-25T02:43:12.374Z,5.63
2023-02-25T02:45:59.323Z,5.59
2023-02-25T02:48:45.175Z,5.57
2023-02-25T02:51:31.172Z,5.53
2023-02-25T02:54:11.805Z,5.50
2023-02-25T02:56:54.215Z,5.46
2023-02-25T02:59:43.594Z,5.41
2023-02-25T03:02:27.860Z,5.37
2023-02-25T03:05:09.894Z,5.34
2023-02-25T03:07:56.865Z,5.32
2023-02-25T03:10:34.428Z,5.29
2023-02-25T03:13:11.543Z,5.26
2023-02-25T03:15:50.263Z,5.24
2023-02-25T03:18:39.166Z,5.21
2023-02-25T03:21:24.540Z,5.18
2023-02-25T03:24:03.969Z,5.14
2023-02-25T03:26:42.858Z,5.11
2023-02-25T03:29:26.909Z,5.10
2023-02-25T03:32:14.747Z,5.11
2023-02-25T03:34:56.941Z,5.11
2023-02-25T03:37:40.187Z,5.11
2023-02-25T03:40:20.963Z,5.13
2023-02-25T03:43:05.663Z,5.15
2023-02-25T03:46:34.031Z,5.17
2023-02-25T03:49:44.531Z,5.24
2023-02-25T03:53:09.460Z,5.28
2023-02-25T03:56:22.841Z,5.23
2023-02-25T03:58:59.345Z,5.15
2023-02-25T04:13:06.020Z,4.77
2023-02-25T04:15:42.994Z,4.74
2023-02-25T04:18:19.742Z,4.71
2023-02-25T04:20:56.259Z,4.68
2023-02-25T04:23:32.583Z,4.63
2023-02-25T04:26:09.558Z,4.55
2023-02-25T04:28:45.911Z,4.50
2023-02-25T04:31:23.078Z,4.45
2023-02-25T04:33:59.463Z,4.41
2023-02-25T04:36:38.088Z,4.37
2023-02-25T04:39:16.648Z,4.33
2023-02-25T04:41:53.209Z,4.28
2023-02-25T04:44:29.673Z,4.23
2023-02-25T04:47:06.266Z,4.18
2023-02-25T04:49:45.826Z,4.13
2023-02-25T04:52:22.706Z,4.08
2023-02-25T04:54:58.971Z,4.04
2023-02-25T04:57:35.353Z,4.00
2023-02-25T05:00:19.249Z,3.99
2023-02-25T05:02:55.932Z,3.98
2023-02-25T05:05:32.468Z,3.96
2023-02-25T05:08:09.831Z,3.95
2023-02-25T05:10:46.107Z,3.94
2023-02-25T05:13:23.887Z,3.93
2023-02-25T05:16:12.055Z,3.90
2023-02-25T05:18:50.248Z,3.87
2023-02-25T05:21:29.461Z,3.84
2023-02-25T05:24:06.386Z,3.82
2023-02-25T05:26:43.128Z,3.77
2023-02-25T05:29:19.791Z,3.74
2023-02-25T05:31:56.119Z,3.70
2023-02-25T05:34:32.935Z,3.67
2023-02-25T05:37:09.425Z,3.63
2023-02-25T05:39:45.884Z,3.60
2023-02-25T05:42:22.148Z,3.58
2023-02-25T05:44:58.712Z,3.56
2023-02-25T05:47:35.920Z,3.54
2023-02-25T05:50:14.545Z,3.51
2023-02-25T05:52:50.796Z,3.49
2023-02-25T05:55:27.958Z,3.46
2023-02-25T05:58:04.271Z,3.45
2023-02-25T06:00:41.149Z,3.43
2023-02-25T06:03:18.664Z,3.42
2023-02-25T06:05:55.000Z,3.41
2023-02-25T06:08:31.359Z,3.39
2023-02-25T06:11:10.034Z,3.37
2023-02-25T06:13:46.246Z,3.35
2023-02-25T06:16:26.174Z,3.34
2023-02-25T06:19:04.456Z,3.31
2023-02-25T06:21:41.748Z,3.28
2023-02-25T06:24:18.003Z,3.23
2023-02-25T06:26:54.682Z,3.17
2023-02-25T06:29:31.150Z,3.11
2023-02-25T06:32:07.989Z,3.07
2023-02-25T06:34:45.165Z,3.03
2023-02-25T06:37:21.585Z,3.03
2023-02-25T06:39:58.335Z,3.05
2023-02-25T06:42:35.092Z,3.07
2023-02-25T06:45:13.640Z,3.08
2023-02-25T06:47:50.247Z,3.10
2023-02-25T06:50:26.636Z,3.12
2023-02-25T06:53:03.554Z,3.19
2023-02-25T06:55:41.409Z,3.35
2023-02-25T06:58:18.305Z,3.54
2023-02-25T07:00:54.835Z,3.79
2023-02-25T07:03:31.572Z,4.05
2023-02-25T07:06:09.318Z,4.26
2023-02-25T07:08:45.848Z,4.45
2023-02-25T07:11:36.697Z,4.58
2023-02-25T07:14:14.544Z,4.77
2023-02-25T07:16:51.223Z,4.98
2023-02-25T07:19:27.698Z,5.01
2023-02-25T07:22:05.515Z,5.30
2023-02-25T07:24:43.019Z,5.86
2023-02-25T07:27:19.763Z,6.47
2023-02-25T07:29:56.327Z,7.41
2023-02-25T07:32:33.402Z,8.55
2023-02-25T07:35:12.646Z,9.68
2023-02-25T07:37:48.882Z,10.54
2023-02-25T07:40:25.347Z,11.07
2023-02-25T07:43:01.942Z,11.57
2023-02-25T07:45:38.414Z,11.92
2023-02-25T07:48:15.280Z,12.11
2023-02-25T07:50:51.574Z,12.00
2023-02-25T07:53:27.902Z,11.76
2023-02-25T07:56:06.014Z,11.54
2023-02-25T07:58:42.522Z,11.37
2023-02-25T08:01:26.111Z,11.20
2023-02-25T08:04:06.110Z,10.83
2023-02-25T08:06:44.886Z,10.52
2023-02-25T08:09:21.333Z,10.25
2023-02-25T08:11:57.647Z,9.91
2023-02-25T08:14:34.098Z,9.53
2023-02-25T08:17:10.465Z,9.12
2023-02-25T08:19:46.855Z,8.94
2023-02-25T08:22:23.250Z,8.83
2023-02-25T08:24:59.986Z,8.65
2023-02-25T08:27:37.506Z,8.44
2023-02-25T08:30:17.748Z,8.32
2023-02-25T08:32:54.110Z,8.28
2023-02-25T08:35:32.014Z,8.19
2023-02-25T08:38:09.323Z,8.21
2023-02-25T08:40:46.336Z,8.15
2023-02-25T08:43:22.721Z,8.03
2023-02-25T08:46:00.699Z,7.88
2023-02-25T08:48:38.927Z,7.71
2023-02-25T08:51:15.722Z,7.54
2023-02-25T08:53:52.590Z,7.44
2023-02-25T08:56:29.240Z,7.37
2023-02-25T08:59:06.331Z,7.33
2023-02-25T09:01:46.409Z,7.28
2023-02-25T09:04:25.357Z,7.14
2023-02-25T09:07:02.201Z,6.98
2023-02-25T09:09:38.964Z,6.81
2023-02-25T09:12:15.582Z,6.71
2023-02-25T09:14:51.940Z,6.97
2023-02-25T09:17:28.519Z,7.53
2023-02-25T09:20:07.843Z,7.80
2023-02-25T09:22:44.718Z,8.17
2023-02-25T09:25:21.356Z,8.22
2023-02-25T09:27:57.923Z,8.35
2023-02-25T09:30:34.299Z,8.60
2023-02-25T09:33:10.865Z,8.87
2023-02-25T09:35:47.346Z,9.09
2023-02-25T09:38:24.029Z,9.36
2023-02-25T09:45:01.571Z,9.77
2023-02-25T09:47:47.513Z,9.79
2023-02-25T09:50:29.750Z,9.53
2023-02-25T09:53:17.956Z,9.11
2023-02-25T09:55:56.570Z,8.59
2023-02-25T09:58:42.700Z,8.07
2023-02-25T10:01:34.363Z,7.59
2023-02-25T10:04:24.866Z,7.29
2023-02-25T10:07:08.363Z,7.37
2023-02-25T10:10:03.832Z,7.61
2023-02-25T10:12:55.457Z,7.80
2023-02-25T10:16:02.168Z,7.97
2023-02-25T10:19:07.164Z,8.16
2023-02-25T10:22:17.882Z,8.28
2023-02-25T10:25:00.180Z,8.23
2023-02-25T10:27:43.537Z,8.13
2023-02-25T10:30:31.568Z,7.99
2023-02-25T10:33:21.939Z,7.87
2023-02-25T10:36:09.396Z,7.76
2023-02-25T10:38:49.962Z,7.75
2023-02-25T10:41:28.325Z,7.79
2023-02-25T10:44:04.702Z,7.85
2023-02-25T10:46:52.499Z,7.90
2023-02-25T10:49:38.135Z,7.93
2023-02-25T10:52:22.218Z,7.93
2023-02-25T10:54:59.738Z,7.94
2023-02-25T10:57:44.894Z,7.99
2023-02-25T11:00:33.591Z,8.04
2023-02-25T11:03:22.723Z,8.04
2023-02-25T11:06:20.341Z,8.04
2023-02-25T11:09:00.668Z,8.14
2023-02-25T11:11:38.642Z,8.25
2023-02-25T11:14:20.818Z,8.36
2023-02-25T11:17:08.664Z,8.41
2023-02-25T11:19:49.938Z,8.40
2023-02-25T11:22:36.070Z,8.35
2023-02-25T11:25:31.633Z,8.28
2023-02-25T11:28:17.900Z,8.28
2023-02-25T11:30:55.118Z,8.31
2023-02-25T11:33:41.678Z,8.28
2023-02-25T11:36:26.558Z,8.19
2023-02-25T11:39:22.553Z,8.08
2023-02-25T11:42:03.416Z,7.93
2023-02-25T11:44:48.078Z,7.82
2023-02-25T11:47:30.840Z,7.70
2023-02-25T11:50:25.187Z,7.52
2023-02-25T11:53:17.970Z,7.30
2023-02-25T11:56:09.538Z,7.11
2023-02-25T11:59:06.236Z,6.90
2023-02-25T12:02:14.805Z,6.57
2023-02-25T12:05:36.287Z,6.25
2023-02-25T12:08:43.866Z,6.15
2023-02-25T12:12:31.008Z,6.15
2023-02-25T12:15:49.152Z,6.14
2023-02-25T12:19:04.428Z,6.12
2023-02-25T12:23:02.655Z,6.09
2023-02-25T12:25:55.955Z,6.13
2023-02-25T12:29:03.670Z,6.19
2023-02-25T12:32:42.754Z,6.36
2023-02-25T12:35:56.855Z,6.66
2023-02-25T12:39:24.163Z,6.91
2023-02-25T12:42:23.778Z,7.05
2023-02-25T12:45:32.014Z,7.02
2023-02-25T12:49:18.334Z,6.94
2023-02-25T12:52:35.471Z,6.79
2023-02-25T12:55:54.084Z,6.61
2023-02-25T12:58:45.797Z,6.37
2023-02-25T13:01:50.599Z,6.22
2023-02-25T13:05:42.075Z,6.26
2023-02-25T13:09:02.110Z,6.52
2023-02-25T13:12:11.555Z,6.76
2023-02-25T13:15:08.691Z,6.78
2023-02-25T13:18:21.098Z,6.80
2023-02-25T13:21:40.419Z,6.76
2023-02-25T13:24:47.360Z,6.65
2023-02-25T13:30:58.252Z,6.29
2023-02-25T13:34:24.291Z,6.08
2023-02-25T13:37:26.918Z,6.03
2023-02-25T13:40:33.413Z,6.00
2023-02-25T13:43:51.080Z,5.94
2023-02-25T13:47:10.673Z,5.96
2023-02-25T13:50:46.823Z,6.04
2023-02-25T13:53:54.117Z,6.10
2023-02-25T13:57:12.344Z,6.14
2023-02-25T14:00:38.704Z,6.13
2023-02-25T14:04:09.437Z,6.06
2023-02-25T14:07:33.947Z,5.90
2023-02-25T14:10:39.022Z,5.72
2023-02-25T14:14:15.943Z,5.50
2023-02-25T14:17:41.605Z,5.22
2023-02-25T14:20:47.339Z,4.98
2023-02-25T14:23:41.898Z,4.80
2023-02-25T14:26:38.060Z,4.67
2023-02-25T14:29:37.863Z,4.61
2023-02-25T14:32:44.180Z,4.53
2023-02-25T14:35:53.471Z,4.49
2023-02-25T14:38:50.191Z,4.46
2023-02-25T14:41:52.675Z,4.42
2023-02-25T14:44:41.072Z,4.37
2023-02-25T14:47:27.809Z,4.32
2023-02-25T14:50:19.867Z,4.25
2023-02-25T14:53:55.317Z,4.20
2023-02-25T14:57:13.724Z,4.16
2023-02-25T15:00:22.990Z,4.13
2023-02-25T15:03:31.900Z,4.09
2023-02-25T15:06:38.640Z,4.05
2023-02-25T15:09:47.164Z,4.02
2023-02-25T15:12:42.133Z,3.99
2023-02-25T15:16:07.692Z,3.95
2023-02-25T15:19:47.549Z,3.90
2023-02-25T15:22:30.524Z,3.86
2023-02-25T15:25:53.956Z,3.88
2023-02-25T15:28:50.362Z,3.89
2023-02-25T15:31:39.155Z,3.91
2023-02-25T15:35:01.086Z,3.93
2023-02-25T15:38:08.670Z,3.98
2023-02-25T15:40:56.382Z,4.02
2023-02-25T15:43:53.950Z,4.09
2023-02-25T15:46:47.186Z,4.19
2023-02-25T15:49:36.533Z,4.30
2023-02-25T15:52:35.440Z,4.35
2023-02-25T15:55:44.024Z,4.31
2023-02-25T15:58:57.657Z,4.19
2023-02-25T16:01:51.405Z,4.07
2023-02-25T16:04:50.668Z,3.96
2023-02-25T16:07:34.589Z,3.82
2023-02-25T16:10:25.281Z,3.69
2023-02-25T16:13:04.052Z,3.57
2023-02-25T16:15:48.380Z,3.50
2023-02-25T16:18:35.311Z,3.45
2023-02-25T16:21:27.294Z,3.43
2023-02-25T16:24:08.107Z,3.42
2023-02-25T16:27:06.990Z,3.42
2023-02-25T16:30:04.030Z,3.41
2023-02-25T16:32:55.009Z,3.42
2023-02-25T16:35:38.635Z,3.43
2023-02-25T16:38:28.847Z,3.43
2023-02-25T16:41:06.624Z,3.42
2023-02-25T16:43:46.892Z,3.42
2023-02-25T16:46:32.183Z,3.41
2023-02-25T16:49:19.585Z,3.41
2023-02-25T16:51:58.301Z,3.41
2023-02-25T16:54:41.400Z,3.42
2023-02-25T16:57:26.652Z,3.42
2023-02-25T17:00:23.232Z,3.42
2023-02-25T17:03:06.899Z,3.42
2023-02-25T17:05:43.771Z,3.42
2023-02-25T17:08:22.629Z,3.40
2023-02-25T17:11:02.866Z,3.38
2023-02-25T17:13:44.312Z,3.36
2023-02-25T17:16:30.020Z,3.36
2023-02-25T17:19:11.746Z,3.36
2023-02-25T17:21:55.879Z,3.35
2023-02-25T17:24:35.751Z,3.34
2023-02-25T17:27:13.335Z,3.33
2023-02-25T17:29:50.550Z,3.32
2023-02-25T17:32:30.831Z,3.30
2023-02-25T17:35:09.670Z,3.28
2023-02-25T17:37:46.727Z,3.26
2023-02-25T17:40:30.930Z,3.23
2023-02-25T17:43:27.231Z,3.21
2023-02-25T17:46:15.979Z,3.19
2023-02-25T17:49:00.155Z,3.16
2023-02-25T17:51:39.865Z,3.15
2023-02-25T17:54:22.407Z,3.14
2023-02-25T17:57:07.717Z,3.14
2023-02-25T17:59:50.148Z,3.15
2023-02-25T18:02:44.123Z,3.14
2023-02-25T18:05:29.732Z,3.13
2023-02-25T18:08:19.779Z,3.14
2023-02-25T18:11:03.192Z,3.13
2023-02-25T18:13:41.826Z,3.12
2023-02-25T18:16:44.940Z,3.10
2023-02-25T18:19:46.282Z,3.08
2023-02-25T18:22:50.127Z,3.06
2023-02-25T18:25:39.354Z,3.03
2023-02-25T18:28:22.624Z,3.00
2023-02-25T18:30:59.903Z,3.00
2023-02-25T18:33:36.662Z,2.98
2023-02-25T18:36:25.860Z,2.97
2023-02-25T18:39:07.333Z,2.96
2023-02-25T18:41:43.919Z,2.95
2023-02-25T18:44:20.852Z,2.94
2023-02-25T18:46:57.195Z,2.94
2023-02-25T18:49:33.643Z,2.94
2023-02-25T18:52:19.196Z,2.94
2023-02-25T18:54:55.760Z,2.94
2023-02-25T18:57:32.619Z,2.94
2023-02-25T19:00:13.732Z,2.94
2023-02-25T19:02:54.783Z,2.95
2023-02-25T19:05:32.566Z,2.95
2023-02-25T19:08:15.434Z,2.95
2023-02-25T19:10:53.659Z,2.96
2023-02-25T19:13:37.735Z,2.95
2023-02-25T19:16:16.096Z,2.95
2023-02-25T19:18:52.811Z,2.95
2023-02-25T19:21:29.381Z,2.94
2023-02-25T19:24:06.488Z,2.95
2023-02-25T19:26:44.221Z,2.93
2023-02-25T19:29:20.627Z,2.91
2023-02-25T19:31:57.178Z,2.90
2023-02-25T19:34:33.873Z,2.89
2023-02-25T19:37:10.733Z,2.88
2023-02-25T19:39:47.904Z,2.87
2023-02-25T19:42:24.627Z,2.87
2023-02-25T19:45:01.065Z,2.85
2023-02-25T19:47:37.903Z,2.84
2023-02-25T19:50:17.092Z,2.84
2023-02-25T19:52:53.843Z,2.82
2023-02-25T19:55:30.523Z,2.83
2023-02-25T19:58:07.100Z,2.83
2023-02-25T20:00:46.372Z,2.83
2023-02-25T20:03:23.233Z,2.82
2023-02-25T20:06:04.788Z,2.80
2023-02-25T20:08:44.323Z,2.78
2023-02-25T20:11:23.512Z,2.76
2023-02-25T20:14:01.127Z,2.74
2023-02-25T20:16:39.967Z,2.71
2023-02-25T20:19:17.349Z,2.68
2023-02-25T20:21:53.835Z,2.67
2023-02-25T20:24:30.974Z,2.65
2023-02-25T20:27:07.391Z,2.64
2023-02-25T20:29:44.809Z,2.62
2023-02-25T20:32:21.282Z,2.60
2023-02-25T20:34:59.082Z,2.60
2023-02-25T20:37:40.489Z,2.59
2023-02-25T20:40:19.040Z,2.58
2023-02-25T20:42:56.383Z,2.57
2023-02-25T20:45:35.811Z,2.56
2023-02-25T20:48:26.862Z,2.54
2023-02-25T20:51:04.807Z,2.53
2023-02-25T20:53:43.459Z,2.50
2023-02-25T20:56:25.346Z,2.48
2023-02-25T20:59:02.176Z,2.43
2023-02-25T21:01:38.887Z,2.38
2023-02-25T21:04:15.828Z,2.34
2023-02-25T21:06:52.375Z,2.27
2023-02-25T21:09:29.122Z,2.21
2023-02-25T21:12:07.042Z,2.18
2023-02-25T21:14:44.340Z,2.15
2023-02-25T21:17:20.807Z,2.15
2023-02-25T21:19:57.203Z,2.15
2023-02-25T21:22:33.912Z,2.16
2023-02-25T21:25:11.983Z,2.17
2023-02-25T21:27:48.255Z,2.18
2023-02-25T21:30:25.469Z,2.19
2023-02-25T21:33:02.598Z,2.20
2023-02-25T21:35:39.259Z,2.22
2023-02-25T21:38:15.800Z,2.24
2023-02-25T21:40:52.656Z,2.26
2023-02-25T21:43:29.172Z,2.26
2023-02-25T21:46:11.010Z,2.28
2023-02-25T21:48:50.629Z,2.29
2023-02-25T21:51:30.498Z,2.30
2023-02-25T21:54:07.536Z,2.30
2023-02-25T21:56:44.820Z,2.30
2023-02-25T21:59:22.519Z,2.30
2023-02-25T22:02:48.123Z,2.29
2023-02-25T22:05:25.394Z,2.28
2023-02-25T22:08:01.863Z,2.29
2023-02-25T22:10:40.154Z,2.28
2023-02-25T22:13:16.639Z,2.28
2023-02-25T22:15:54.508Z,2.27
2023-02-25T22:18:31.326Z,2.27
2023-02-25T22:21:16.091Z,2.27
2023-02-25T22:23:55.729Z,2.28
2023-02-25T22:26:36.166Z,2.27
2023-02-25T22:29:14.184Z,2.25
2023-02-25T22:31:50.582Z,2.24
2023-02-25T22:34:27.287Z,2.23
2023-02-25T22:37:03.680Z,2.21
2023-02-25T22:39:39.967Z,2.21
2023-02-25T22:42:16.320Z,2.21
2023-02-25T22:45:02.374Z,2.21
2023-02-25T22:47:48.894Z,2.20
2023-02-25T22:50:27.422Z,2.20
2023-02-25T22:53:03.851Z,2.19
2023-02-25T22:55:40.679Z,2.19
2023-02-25T22:58:16.999Z,2.19
2023-02-25T23:00:53.294Z,2.20
2023-02-25T23:03:29.762Z,2.20
2023-02-25T23:06:07.065Z,2.21
2023-02-25T23:08:43.990Z,2.22
2023-02-25T23:11:24.319Z,2.23
2023-02-25T23:14:03.935Z,2.24
2023-02-25T23:16:43.973Z,2.26
2023-02-25T23:19:21.783Z,2.28
2023-02-25T23:21:58.240Z,2.30
2023-02-25T23:24:35.035Z,2.32
2023-02-25T23:27:11.318Z,2.33
2023-02-25T23:29:47.755Z,2.35
2023-02-25T23:32:24.277Z,2.36
2023-02-25T23:35:00.993Z,2.38
2023-02-25T23:37:38.640Z,2.39
2023-02-25T23:40:17.830Z,2.41
2023-02-25T23:42:55.321Z,2.41
2023-02-25T23:45:32.845Z,2.41
2023-02-25T23:48:10.368Z,2.42
2023-02-25T23:50:46.754Z,2.42
2023-02-25T23:53:23.328Z,2.42
2023-02-25T23:56:05.192Z,2.43
2023-02-25T23:58:40.637Z,2.42
